createdAt,value
2018-11-02T05:00:30.841Z,96.06
2018-11-02T05:01:30.772Z,95.86
2018-11-02T05:02:30.763Z,96.95
2018-11-02T05:03:30.755Z,95.96
2018-11-02T05:04:30.726Z,96.17
2018-11-02T05:05:30.721Z,95.96
2018-11-02T05:06:30.722Z,95.54
2018-11-02T05:07:30.702Z,95.75
2018-11-02T05:08:30.679Z,95.96
2018-11-02T05:09:30.669Z,97.20
2018-11-02T05:10:30.691Z,96.89
2018-11-02T05:11:30.768Z,97.52
2018-11-02T05:12:30.645Z,97.41
2018-11-02T05:13:30.618Z,97.06
2018-11-02T05:14:30.612Z,97.67
2018-11-02T05:15:30.607Z,97.10
2018-11-02T05:16:30.584Z,97.52
2018-11-02T05:17:30.600Z,97.57
2018-11-02T05:18:30.568Z,96.95
2018-11-02T05:19:30.546Z,97.57
2018-11-02T05:20:30.561Z,97.57
2018-11-02T05:21:30.776Z,97.36
2018-11-02T05:22:30.531Z,97.36
2018-11-02T05:23:30.508Z,97.00
2018-11-02T05:24:30.493Z,97.41
2018-11-02T05:25:30.521Z,96.27
2018-11-02T05:26:30.470Z,96.79
2018-11-02T05:27:30.471Z,96.31
2018-11-02T05:28:30.466Z,95.70
2018-11-02T05:29:30.464Z,96.01
2018-11-02T05:30:30.444Z,95.95
2018-11-02T05:31:30.421Z,95.74
2018-11-02T05:32:30.401Z,96.88
2018-11-02T05:33:30.390Z,96.78
2018-11-02T05:34:30.396Z,96.88
2018-11-02T05:35:30.407Z,97.19
2018-11-02T05:36:30.367Z,95.74
2018-11-02T05:37:30.359Z,96.05
2018-11-02T05:38:30.370Z,95.99
2018-11-02T05:39:30.401Z,96.92
2018-11-02T05:40:30.326Z,96.61
2018-11-02T05:41:30.311Z,97.24
2018-11-02T05:42:30.300Z,97.65
2018-11-02T05:43:30.308Z,97.55
2018-11-02T05:44:30.264Z,97.03
2018-11-02T05:45:30.249Z,97.13
2018-11-02T05:46:30.271Z,97.86
2018-11-02T05:47:30.371Z,97.44
2018-11-02T05:48:30.219Z,97.44
2018-11-02T05:49:30.212Z,97.75
2018-11-02T05:50:30.248Z,97.75
2018-11-02T05:51:30.193Z,97.55
2018-11-02T05:52:30.173Z,97.44
2018-11-02T05:53:30.166Z,97.55
2018-11-02T05:54:30.172Z,97.50
2018-11-02T05:55:30.152Z,97.50
2018-11-02T05:56:30.178Z,97.75
2018-11-02T05:57:30.116Z,97.75
2018-11-02T05:58:30.105Z,97.81
2018-11-02T05:59:30.097Z,98.02
2018-11-02T06:00:30.082Z,98.54
2018-11-02T06:01:30.090Z,97.91
2018-11-02T06:02:30.083Z,97.91
2018-11-02T06:03:30.053Z,97.71
2018-11-02T06:04:30.036Z,97.97
2018-11-02T06:05:30.025Z,98.64
2018-11-02T06:06:30.030Z,98.64
2018-11-02T06:07:30.002Z,98.60
2018-11-02T06:08:30.035Z,98.18
2018-11-02T06:09:29.996Z,97.87
2018-11-02T06:10:29.989Z,98.18
2018-11-02T06:11:29.974Z,98.28
2018-11-02T06:12:29.945Z,98.24
2018-11-02T06:13:29.994Z,98.44
2018-11-02T06:14:29.940Z,98.24
2018-11-02T06:15:29.916Z,98.44
2018-11-02T06:16:29.912Z,98.13
2018-11-02T06:17:29.912Z,98.55
2018-11-02T06:18:29.914Z,98.13
2018-11-02T06:19:29.882Z,98.55
2018-11-02T06:20:29.875Z,98.55
2018-11-02T06:21:29.861Z,98.34
2018-11-02T06:22:29.851Z,97.83
2018-11-02T06:23:29.820Z,97.88
2018-11-02T06:24:29.821Z,97.62
2018-11-02T06:25:29.801Z,97.26
2018-11-02T06:26:29.826Z,97.47
2018-11-02T06:27:29.790Z,97.47
2018-11-02T06:28:29.764Z,97.41
2018-11-02T06:29:29.756Z,97.62
2018-11-02T06:30:29.840Z,97.06
2018-11-02T06:31:29.744Z,97.26
2018-11-02T06:32:29.776Z,97.26
2018-11-02T06:33:29.735Z,97.41
2018-11-02T06:34:29.723Z,97.41
2018-11-02T06:35:29.708Z,97.10
2018-11-02T06:36:29.700Z,97.16
2018-11-02T06:37:29.671Z,97.10
2018-11-02T06:38:29.706Z,97.31
2018-11-02T06:39:29.646Z,97.31
2018-11-02T06:40:29.631Z,97.67
2018-11-02T06:41:29.659Z,97.83
2018-11-02T06:42:29.664Z,97.83
2018-11-02T06:43:29.599Z,97.83
2018-11-02T06:44:29.584Z,98.13
2018-11-02T06:45:29.573Z,97.88
2018-11-02T06:46:29.590Z,98.40
2018-11-02T06:47:29.555Z,97.78
2018-11-02T06:48:29.535Z,98.40
2018-11-02T06:49:29.527Z,98.82
2018-11-02T06:50:29.571Z,98.92
2018-11-02T06:51:29.514Z,98.92
2018-11-02T06:52:29.494Z,98.92
2018-11-02T06:53:29.494Z,98.82
2018-11-02T06:54:29.487Z,98.92
2018-11-02T06:55:29.477Z,98.92
2018-11-02T06:56:29.461Z,99.02
2018-11-02T06:57:29.437Z,98.92
2018-11-02T06:58:29.429Z,99.13
2018-11-02T06:59:29.672Z,98.77
2018-11-02T07:00:29.483Z,98.87
2018-11-02T07:01:29.399Z,98.97
2018-11-02T07:02:29.381Z,98.87
2018-11-02T07:03:29.373Z,98.87
2018-11-02T07:04:29.364Z,98.83
2018-11-02T07:05:29.353Z,98.83
2018-11-02T07:06:29.387Z,98.93
2018-11-02T07:07:29.447Z,98.83
2018-11-02T07:08:29.380Z,98.83
2018-11-02T07:09:29.304Z,98.21
2018-11-02T07:10:29.284Z,98.10
2018-11-02T07:11:29.289Z,98.00
2018-11-02T07:12:29.278Z,97.89
2018-11-02T07:13:29.294Z,98.00
2018-11-02T07:14:29.295Z,98.52
2018-11-02T07:15:29.236Z,98.31
2018-11-02T07:16:29.258Z,98.00
2018-11-02T07:17:29.221Z,97.89
2018-11-02T07:18:29.213Z,98.00
2018-11-02T07:19:29.186Z,97.49
2018-11-02T07:20:29.175Z,97.69
2018-11-02T07:21:29.199Z,96.86
2018-11-02T07:22:29.152Z,97.38
2018-11-02T07:23:29.154Z,97.28
2018-11-02T07:24:29.146Z,97.69
2018-11-02T07:25:29.117Z,97.07
2018-11-02T07:26:29.167Z,97.69
2018-11-02T07:27:29.098Z,97.59
2018-11-02T07:28:29.085Z,97.38
2018-11-02T07:29:29.075Z,97.38
2018-11-02T07:30:29.064Z,97.17
2018-11-02T07:31:29.090Z,97.07
2018-11-02T07:32:29.039Z,97.17
2018-11-02T07:33:29.044Z,96.97
2018-11-02T07:34:29.122Z,96.97
2018-11-02T07:35:29.020Z,97.17
2018-11-02T07:36:29.016Z,96.86
2018-11-02T07:37:29.013Z,97.17
2018-11-02T07:38:28.970Z,96.97
2018-11-02T07:39:28.970Z,96.97
2018-11-02T07:40:28.961Z,97.38
2018-11-02T07:41:28.936Z,97.49
2018-11-02T07:42:28.958Z,97.49
2018-11-02T07:43:28.930Z,97.07
2018-11-02T07:44:28.941Z,97.17
2018-11-02T07:45:28.898Z,96.92
2018-11-02T07:46:28.879Z,97.33
2018-11-02T07:47:28.945Z,96.82
2018-11-02T07:48:28.853Z,96.82
2018-11-02T07:49:28.913Z,96.77
2018-11-02T07:50:28.834Z,97.19
2018-11-02T07:51:28.862Z,96.88
2018-11-02T07:52:28.859Z,97.19
2018-11-02T07:53:28.799Z,97.50
2018-11-02T07:54:28.781Z,97.14
2018-11-02T07:55:28.789Z,97.04
2018-11-02T07:56:28.781Z,97.25
2018-11-02T07:57:28.850Z,96.52
2018-11-02T07:58:28.790Z,96.94
2018-11-02T07:59:28.717Z,96.94
2018-11-02T08:00:28.723Z,97.20
2018-11-02T08:01:28.728Z,96.79
2018-11-02T08:02:28.729Z,96.79
2018-11-02T08:03:28.737Z,96.89
2018-11-02T08:04:28.674Z,97.09
2018-11-02T08:05:28.679Z,96.37
2018-11-02T08:06:28.667Z,96.27
2018-11-02T08:07:28.648Z,96.31
2018-11-02T08:08:28.661Z,96.27
2018-11-02T08:09:28.613Z,96.58
2018-11-02T08:10:28.631Z,96.48
2018-11-02T08:11:28.692Z,96.37
2018-11-02T08:12:28.596Z,96.48
2018-11-02T08:13:28.584Z,96.44
2018-11-02T08:14:28.560Z,96.02
2018-11-02T08:15:28.560Z,96.23
2018-11-02T08:16:28.557Z,96.33
2018-11-02T08:17:28.560Z,96.28
2018-11-02T08:18:28.514Z,95.67
2018-11-02T08:19:28.503Z,95.67
2018-11-02T08:20:28.497Z,95.61
2018-11-02T08:21:28.496Z,96.08
2018-11-02T08:22:28.496Z,96.49
2018-11-02T08:23:28.470Z,96.28
2018-11-02T08:24:28.513Z,96.18
2018-11-02T08:25:28.467Z,95.98
2018-11-02T08:26:28.424Z,96.75
2018-11-02T08:27:28.445Z,96.55
2018-11-02T08:28:28.417Z,96.34
2018-11-02T08:29:28.405Z,95.10
2018-11-02T08:30:28.391Z,96.55
2018-11-02T08:31:28.408Z,96.03
2018-11-02T08:32:28.379Z,96.09
2018-11-02T08:33:28.356Z,96.20
2018-11-02T08:34:28.381Z,96.20
2018-11-02T08:35:28.339Z,96.20
2018-11-02T08:36:28.310Z,96.30
2018-11-02T08:37:28.343Z,95.33
2018-11-02T08:38:28.288Z,94.92
2018-11-02T08:39:28.319Z,94.71
2018-11-02T08:40:28.260Z,94.60
2018-11-02T08:41:28.261Z,94.87
2018-11-02T08:42:28.269Z,94.87
2018-11-02T08:43:28.226Z,93.90
2018-11-02T08:44:28.279Z,93.49
2018-11-02T08:45:28.258Z,93.54
2018-11-02T08:46:28.222Z,93.70
2018-11-02T08:47:28.212Z,93.54
2018-11-02T08:48:28.173Z,92.97
2018-11-02T08:49:28.214Z,93.80
2018-11-02T08:50:28.185Z,93.18
2018-11-02T08:51:28.143Z,93.08
2018-11-02T08:52:28.263Z,93.29
2018-11-02T08:53:28.145Z,93.18
2018-11-02T08:54:28.110Z,92.87
2018-11-02T08:55:28.162Z,93.18
2018-11-02T08:56:28.084Z,92.57
2018-11-02T08:57:28.095Z,91.29
2018-11-02T08:58:28.238Z,91.19
2018-11-02T08:59:28.230Z,90.94
2018-11-02T09:00:28.090Z,91.41
2018-11-02T09:01:28.067Z,90.28
2018-11-02T09:02:28.050Z,90.18
2018-11-02T09:03:28.004Z,90.28
2018-11-02T09:04:28.004Z,89.87
2018-11-02T09:05:27.986Z,89.91
2018-11-02T09:06:28.022Z,89.56
2018-11-02T09:07:27.978Z,89.60
2018-11-02T09:08:27.955Z,89.60
2018-11-02T09:09:27.959Z,90.42
2018-11-02T09:10:27.967Z,89.76
2018-11-02T09:11:27.948Z,90.14
2018-11-02T09:12:27.969Z,89.78
2018-11-02T09:13:27.893Z,89.37
2018-11-02T09:14:27.887Z,85.85
2018-11-02T09:15:27.871Z,86.77
2018-11-02T09:16:27.916Z,86.52
2018-11-02T09:17:27.868Z,87.45
2018-11-02T09:18:27.969Z,87.45
2018-11-02T09:19:27.987Z,87.24
2018-11-02T09:20:27.835Z,87.76
2018-11-02T09:21:28.098Z,86.73
2018-11-02T09:22:27.832Z,84.27
2018-11-02T09:23:27.780Z,84.99
2018-11-02T09:24:27.769Z,85.09
2018-11-02T09:25:27.761Z,85.91
2018-11-02T09:26:27.754Z,85.19
2018-11-02T09:27:27.812Z,85.39
2018-11-02T09:28:27.723Z,84.27
2018-11-02T09:29:27.723Z,84.47
2018-11-02T09:30:27.721Z,84.68
2018-11-02T09:31:27.693Z,84.17
2018-11-02T09:32:27.705Z,82.93
2018-11-02T09:33:27.671Z,84.84
2018-11-02T09:34:27.651Z,84.95
2018-11-02T09:35:27.648Z,84.19
2018-11-02T09:37:23.422Z,78.56
2018-11-02T09:38:23.417Z,76.57
2018-11-02T09:39:23.397Z,78.42
2018-11-02T09:40:23.526Z,78.59
2018-11-02T09:41:23.372Z,77.56
2018-11-02T09:42:23.409Z,79.10
2018-11-02T09:43:23.362Z,78.59
2018-11-02T09:44:23.344Z,77.05
2018-11-02T09:45:23.326Z,75.59
2018-11-02T09:46:23.311Z,77.73
2018-11-02T09:47:23.308Z,78.24
2018-11-02T09:48:23.293Z,77.73
2018-11-02T09:49:23.274Z,76.40
2018-11-02T09:50:23.266Z,74.46
2018-11-02T09:51:23.370Z,76.40
2018-11-02T09:52:23.251Z,75.27
2018-11-02T09:53:23.250Z,75.21
2018-11-02T09:54:23.232Z,75.59
2018-11-02T09:55:23.217Z,75.10
2018-11-02T09:56:23.205Z,76.30
2018-11-02T09:57:23.210Z,77.97
2018-11-02T09:58:23.190Z,77.01
2018-11-02T09:59:23.170Z,77.63
2018-11-02T10:00:23.156Z,78.34
2018-11-02T10:01:23.145Z,78.00
2018-11-02T10:02:23.134Z,78.00
2018-11-02T10:03:23.133Z,75.45
2018-11-02T10:04:23.115Z,75.21
2018-11-02T10:05:23.103Z,74.59
2018-11-02T10:06:23.083Z,75.41
2018-11-02T10:07:23.073Z,72.04
2018-11-02T10:08:23.146Z,71.94
2018-11-02T10:09:23.116Z,73.27
2018-11-02T10:10:23.046Z,73.71
2018-11-02T10:11:23.036Z,72.28
2018-11-02T10:12:23.024Z,71.56
2018-11-02T10:13:23.025Z,72.89
2018-11-02T10:14:23.009Z,72.58
2018-11-02T10:15:22.977Z,73.81
2018-11-02T10:16:22.967Z,74.22
2018-11-02T10:17:22.967Z,73.61
2018-11-02T10:18:22.967Z,73.85
2018-11-02T10:19:22.941Z,74.05
2018-11-02T10:20:22.934Z,70.67
2018-11-02T10:21:22.921Z,70.43
2018-11-02T10:22:22.906Z,71.19
2018-11-02T10:23:22.911Z,71.80
2018-11-02T10:24:22.893Z,70.88
2018-11-02T10:25:22.880Z,70.37
2018-11-02T10:26:22.865Z,71.39
2018-11-02T10:27:22.859Z,69.96
2018-11-02T10:28:22.942Z,70.57
2018-11-02T10:29:22.831Z,70.78
2018-11-02T10:30:22.816Z,70.06
2018-11-02T10:31:22.806Z,69.55
2018-11-02T10:32:22.798Z,71.08
2018-11-02T10:33:22.793Z,70.47
2018-11-02T10:34:22.771Z,70.81
2018-11-02T10:35:22.825Z,71.39
2018-11-02T10:36:22.744Z,70.50
2018-11-02T10:37:22.737Z,70.47
2018-11-02T10:38:22.736Z,70.78
2018-11-02T10:39:22.821Z,71.39
2018-11-02T10:40:22.703Z,73.78
2018-11-02T10:41:22.695Z,73.54
2018-11-02T10:42:22.675Z,74.05
2018-11-02T10:43:22.685Z,73.44
2018-11-02T10:44:22.678Z,70.98
2018-11-02T10:45:22.651Z,72.41
2018-11-02T10:46:22.635Z,69.96
2018-11-02T10:47:22.619Z,71.29
2018-11-02T10:48:22.625Z,71.46
2018-11-02T10:49:22.672Z,70.54
2018-11-02T10:50:22.585Z,69.89
2018-11-02T10:51:22.578Z,69.93
2018-11-02T10:52:22.566Z,70.00
2018-11-02T10:53:22.563Z,69.89
2018-11-02T10:54:22.593Z,70.00
2018-11-02T10:55:22.528Z,70.64
2018-11-02T10:56:22.524Z,71.66
2018-11-02T10:57:22.517Z,72.99
2018-11-02T10:58:22.511Z,74.05
2018-11-02T10:59:22.494Z,71.70
2018-11-02T11:00:22.471Z,72.52
2018-11-02T11:01:22.515Z,70.78
2018-11-02T11:02:22.453Z,71.22
2018-11-02T11:03:22.455Z,69.96
2018-11-02T11:04:22.426Z,69.04
2018-11-02T11:05:22.500Z,69.93
2018-11-02T11:06:22.409Z,69.01
2018-11-02T11:07:22.396Z,70.10
2018-11-02T11:08:22.400Z,68.66
2018-11-02T11:09:22.369Z,69.59
2018-11-02T11:10:22.381Z,69.04
2018-11-02T11:11:22.371Z,69.65
2018-11-02T11:12:22.416Z,69.21
2018-11-02T11:13:22.806Z,69.65
2018-11-02T11:14:22.308Z,68.09
2018-11-02T11:15:22.328Z,67.89
2018-11-02T11:16:22.301Z,66.86
2018-11-02T11:17:22.276Z,67.45
2018-11-02T11:18:22.295Z,67.45
2018-11-02T11:19:22.256Z,68.06
2018-11-02T11:20:22.244Z,68.67
2018-11-02T11:21:22.273Z,69.18
2018-11-02T11:22:22.261Z,68.98
2018-11-02T11:23:22.227Z,67.58
2018-11-02T11:24:22.209Z,69.01
2018-11-02T11:25:22.192Z,70.23
2018-11-02T11:26:22.181Z,67.99
2018-11-02T11:27:22.167Z,66.66
2018-11-02T11:28:22.170Z,66.02
2018-11-02T11:29:22.179Z,66.22
2018-11-02T11:30:22.139Z,67.41
2018-11-02T11:31:22.125Z,66.70
2018-11-02T11:32:22.110Z,63.95
2018-11-02T11:33:22.130Z,65.28
2018-11-02T11:34:22.089Z,63.75
2018-11-02T11:35:22.078Z,62.70
2018-11-02T11:36:22.064Z,60.45
2018-11-02T11:37:22.045Z,63.13
2018-11-02T11:38:22.045Z,62.73
2018-11-02T11:39:22.041Z,63.95
2018-11-02T11:40:22.014Z,62.42
2018-11-02T11:41:21.995Z,64.05
2018-11-02T11:42:21.996Z,63.64
2018-11-02T11:43:21.986Z,63.13
2018-11-02T11:44:21.981Z,61.88
2018-11-02T11:45:21.953Z,63.00
2018-11-02T11:46:21.950Z,62.82
2018-11-02T11:47:21.939Z,62.93
2018-11-02T11:48:21.974Z,62.52
2018-11-02T11:49:21.926Z,63.44
2018-11-02T11:50:21.895Z,63.85
2018-11-02T11:51:21.893Z,63.64
2018-11-02T11:52:21.882Z,64.15
2018-11-02T11:53:21.876Z,63.64
2018-11-02T11:54:21.887Z,63.64
2018-11-02T11:55:21.848Z,63.75
2018-11-02T11:56:21.827Z,64.05
2018-11-02T11:57:21.833Z,64.15
2018-11-02T11:58:21.814Z,64.79
2018-11-02T11:59:21.825Z,63.98
2018-11-02T12:00:21.803Z,62.65
2018-11-02T12:01:21.785Z,63.67
2018-11-02T12:02:21.836Z,63.67
2018-11-02T12:03:21.763Z,62.55
2018-11-02T12:04:21.801Z,62.62
2018-11-02T12:05:21.742Z,66.12
2018-11-02T12:06:21.728Z,64.08
2018-11-02T12:07:21.717Z,65.31
2018-11-02T12:08:21.709Z,63.16
2018-11-02T12:09:21.788Z,65.31
2018-11-02T12:10:21.796Z,67.79
2018-11-02T12:11:21.668Z,66.05
2018-11-02T12:12:21.665Z,65.34
2018-11-02T12:13:21.648Z,65.74
2018-11-02T12:14:21.653Z,65.13
2018-11-02T12:15:21.617Z,67.41
2018-11-02T12:16:21.616Z,66.97
2018-11-02T12:17:21.608Z,67.71
2018-11-02T12:18:21.593Z,67.30
2018-11-02T12:19:21.588Z,66.08
2018-11-02T12:20:21.576Z,65.67
2018-11-02T12:21:21.546Z,66.08
2018-11-02T12:22:21.555Z,66.69
2018-11-02T12:23:21.564Z,67.30
2018-11-02T12:24:21.537Z,66.18
2018-11-02T12:25:21.521Z,65.88
2018-11-02T12:26:21.506Z,65.77
2018-11-02T12:27:21.489Z,66.69
2018-11-02T12:28:21.585Z,67.10
2018-11-02T12:29:21.479Z,67.51
2018-11-02T12:30:21.452Z,68.23
2018-11-02T12:31:21.445Z,66.31
2018-11-02T12:32:21.428Z,66.52
2018-11-02T12:33:21.446Z,66.52
2018-11-02T12:34:21.427Z,66.52
2018-11-02T12:35:21.400Z,68.26
2018-11-02T12:36:21.391Z,68.66
2018-11-02T12:37:21.384Z,68.19
2018-11-02T12:38:21.360Z,69.31
2018-11-02T12:39:21.357Z,69.72
2018-11-02T12:40:21.343Z,69.21
2018-11-02T12:41:21.335Z,69.82
2018-11-02T12:42:21.320Z,70.98
2018-11-02T12:43:21.448Z,72.07
2018-11-02T12:44:21.308Z,73.13
2018-11-02T12:45:21.290Z,73.13
2018-11-02T12:46:21.275Z,73.74
2018-11-02T12:47:21.267Z,74.35
2018-11-02T12:48:21.350Z,75.17
2018-11-02T12:49:21.547Z,74.80
2018-11-02T12:50:21.396Z,74.80
2018-11-02T12:51:21.222Z,73.57
2018-11-02T12:52:21.208Z,72.48
2018-11-02T12:53:21.196Z,68.05
2018-11-02T12:54:21.204Z,71.73
2018-11-02T12:55:21.182Z,72.45
2018-11-02T12:56:21.155Z,71.94
2018-11-02T12:57:21.164Z,70.61
2018-11-02T12:58:21.146Z,70.67
2018-11-02T12:59:21.139Z,73.57
2018-11-02T13:00:21.116Z,73.54
2018-11-02T13:01:21.143Z,69.75
2018-11-02T13:02:21.094Z,72.11
2018-11-02T13:03:21.125Z,72.82
2018-11-02T13:04:21.096Z,72.82
2018-11-02T13:05:21.063Z,74.39
2018-11-02T13:06:21.057Z,75.52
2018-11-02T13:07:21.041Z,76.03
2018-11-02T13:08:21.029Z,76.54
2018-11-02T13:09:21.095Z,77.29
2018-11-02T13:10:21.011Z,77.50
2018-11-02T13:11:21.030Z,77.64
2018-11-02T13:12:20.985Z,77.73
2018-11-02T13:13:20.978Z,77.64
2018-11-02T13:14:21.003Z,78.28
2018-11-02T13:15:20.957Z,78.28
2018-11-02T13:16:20.939Z,79.31
2018-11-02T13:17:20.928Z,79.31
2018-11-02T13:18:20.917Z,79.00
2018-11-02T13:19:20.929Z,79.45
2018-11-02T13:20:20.957Z,79.55
2018-11-02T13:21:20.882Z,79.96
2018-11-02T13:22:20.913Z,79.55
2018-11-02T13:23:20.859Z,80.27
2018-11-02T13:24:20.864Z,80.58
2018-11-02T13:25:20.837Z,80.78
2018-11-02T13:26:20.844Z,81.13
2018-11-02T13:27:20.819Z,80.37
2018-11-02T13:28:20.868Z,80.62
2018-11-02T13:29:20.808Z,80.62
2018-11-02T13:30:21.002Z,81.64
2018-11-02T13:31:20.789Z,81.23
2018-11-02T13:32:20.761Z,81.54
2018-11-02T13:33:20.748Z,82.05
2018-11-02T13:34:20.749Z,81.85
2018-11-02T13:35:20.722Z,82.50
2018-11-02T13:36:20.739Z,83.42
2018-11-02T13:37:20.701Z,82.70
2018-11-02T13:38:20.698Z,82.50
2018-11-02T13:39:20.725Z,82.70
2018-11-02T13:40:20.676Z,83.53
2018-11-02T13:41:20.666Z,82.91
2018-11-02T13:42:20.676Z,83.73
2018-11-02T13:43:20.678Z,83.63
2018-11-02T13:44:20.629Z,83.63
2018-11-02T13:45:20.625Z,83.67
2018-11-02T13:46:20.602Z,84.18
2018-11-02T13:47:20.592Z,84.14
2018-11-02T13:48:20.584Z,84.76
2018-11-02T13:49:20.564Z,84.55
2018-11-02T13:50:20.683Z,84.76
2018-11-02T13:51:20.545Z,85.38
2018-11-02T13:52:20.538Z,84.25
2018-11-02T13:53:20.527Z,84.14
2018-11-02T13:54:20.512Z,83.63
2018-11-02T13:55:20.515Z,84.25
2018-11-02T13:56:20.497Z,84.45
2018-11-02T13:57:20.478Z,84.04
2018-11-02T13:58:20.466Z,84.28
2018-11-02T13:59:20.460Z,84.90
2018-11-02T14:00:20.471Z,84.80
2018-11-02T14:01:20.531Z,84.90
2018-11-02T14:02:20.428Z,84.59
2018-11-02T14:03:20.412Z,84.69
2018-11-02T14:04:20.398Z,85.11
2018-11-02T14:05:20.400Z,85.21
2018-11-02T14:06:20.381Z,85.55
2018-11-02T14:07:20.368Z,85.55
2018-11-02T14:08:20.358Z,85.93
2018-11-02T14:09:20.342Z,85.97
2018-11-02T14:10:20.343Z,86.17
2018-11-02T14:11:20.324Z,86.13
2018-11-02T14:12:20.312Z,86.03
2018-11-02T14:13:20.297Z,86.95
2018-11-02T14:14:20.285Z,87.16
2018-11-02T14:15:20.290Z,87.16
2018-11-02T14:16:20.263Z,86.95
2018-11-02T14:17:20.252Z,86.95
2018-11-02T14:18:20.362Z,86.85
2018-11-02T14:19:20.232Z,86.75
2018-11-02T14:20:20.235Z,87.05
2018-11-02T14:21:20.214Z,86.33
2018-11-02T14:22:20.194Z,86.03
2018-11-02T14:23:20.187Z,86.13
2018-11-02T14:24:20.176Z,86.13
2018-11-02T14:25:20.169Z,85.41
2018-11-02T14:26:20.152Z,85.72
2018-11-02T14:27:20.139Z,86.33
2018-11-02T14:28:20.131Z,86.75
2018-11-02T14:29:20.175Z,86.95
2018-11-02T14:30:20.124Z,87.37
2018-11-02T14:31:20.105Z,87.26
2018-11-02T14:32:20.089Z,87.37
2018-11-02T14:33:20.074Z,87.37
2018-11-02T14:34:20.066Z,87.05
2018-11-02T14:35:20.063Z,86.75
2018-11-02T14:36:20.041Z,86.65
2018-11-02T14:37:20.032Z,86.68
2018-11-02T14:38:20.022Z,86.99
2018-11-02T14:39:20.007Z,86.58
2018-11-02T14:40:20.003Z,87.10
2018-11-02T14:41:20.066Z,87.10
2018-11-02T14:42:19.973Z,87.71
2018-11-02T14:43:19.961Z,87.51
2018-11-02T14:44:19.949Z,87.10
2018-11-02T14:45:19.949Z,87.30
2018-11-02T14:46:19.961Z,87.92
2018-11-02T14:47:19.916Z,87.51
2018-11-02T14:48:19.900Z,88.06
2018-11-02T14:49:19.896Z,87.92
2018-11-02T14:50:19.901Z,88.37
2018-11-02T14:51:19.870Z,88.17
2018-11-02T14:52:19.859Z,87.92
2018-11-02T14:53:19.848Z,88.02
2018-11-02T14:54:19.844Z,88.06
2018-11-02T14:55:19.840Z,87.75
2018-11-02T14:56:19.813Z,88.06
2018-11-02T14:57:19.807Z,87.96
2018-11-02T14:58:19.795Z,87.65
2018-11-02T14:59:19.778Z,88.51
2018-11-02T15:00:19.784Z,88.37
2018-11-02T15:01:19.761Z,88.27
2018-11-02T15:02:19.733Z,88.47
2018-11-02T15:03:19.735Z,88.51
2018-11-02T15:04:19.730Z,88.31
2018-11-02T15:05:19.729Z,88.82
2018-11-02T15:06:19.708Z,88.92
2018-11-02T15:07:19.695Z,89.17
2018-11-02T15:08:19.681Z,89.28
2018-11-02T15:09:19.669Z,89.13
2018-11-02T15:10:19.667Z,89.13
2018-11-02T15:11:19.680Z,88.76
2018-11-02T15:12:19.625Z,88.66
2018-11-02T15:13:19.609Z,88.86
2018-11-02T15:14:19.608Z,89.17
2018-11-02T15:15:19.613Z,88.76
2018-11-02T15:16:19.591Z,88.90
2018-11-02T15:17:19.580Z,88.76
2018-11-02T15:18:19.564Z,89.07
2018-11-02T15:19:19.559Z,89.83
2018-11-02T15:20:19.556Z,89.83
2018-11-02T15:21:19.529Z,89.62
2018-11-02T15:22:19.517Z,89.94
2018-11-02T15:23:19.511Z,89.94
2018-11-02T15:24:19.499Z,89.73
2018-11-02T15:25:19.498Z,89.73
2018-11-02T15:26:19.532Z,89.73
2018-11-02T15:27:19.462Z,89.62
2018-11-02T15:28:19.456Z,89.62
2018-11-02T15:29:19.439Z,89.77
2018-11-02T15:30:19.439Z,89.87
2018-11-02T15:31:19.412Z,89.77
2018-11-02T15:32:19.412Z,89.87
2018-11-02T15:33:19.393Z,89.36
2018-11-02T15:34:19.383Z,89.67
2018-11-02T15:35:19.370Z,89.40
2018-11-02T15:36:19.359Z,89.71
2018-11-02T15:37:19.354Z,89.71
2018-11-02T15:38:19.336Z,90.01
2018-11-02T15:39:19.324Z,89.81
2018-11-02T15:40:19.329Z,89.81
2018-11-02T15:41:19.303Z,90.43
2018-11-02T15:42:19.297Z,89.85
2018-11-02T15:43:19.269Z,90.01
2018-11-02T15:44:19.330Z,90.67
2018-11-02T15:45:19.266Z,90.06
2018-11-02T15:46:19.242Z,90.26
2018-11-02T15:47:19.235Z,90.26
2018-11-02T15:48:19.224Z,90.26
2018-11-02T15:49:19.225Z,90.67
2018-11-02T15:50:19.241Z,90.67
2018-11-02T15:51:19.194Z,90.61
2018-11-02T15:52:19.182Z,91.54
2018-11-02T15:53:19.277Z,91.54
2018-11-02T15:54:19.159Z,91.24
2018-11-02T15:55:19.149Z,91.54
2018-11-02T15:56:19.153Z,91.44
2018-11-02T15:57:19.121Z,91.54
2018-11-02T15:58:19.145Z,90.10
2018-11-02T15:59:19.099Z,90.41
2018-11-02T16:00:19.147Z,90.61
2018-11-02T16:01:19.088Z,90.41
2018-11-02T16:02:19.057Z,90.25
2018-11-02T16:03:19.052Z,91.07
2018-11-02T16:04:19.046Z,90.82
2018-11-02T16:05:19.029Z,90.55
2018-11-02T16:06:19.035Z,90.55
2018-11-02T16:07:19.015Z,90.45
2018-11-02T16:08:19.000Z,90.76
2018-11-02T16:09:18.982Z,91.58
2018-11-02T16:10:18.982Z,91.58
2018-11-02T16:11:18.978Z,91.58
2018-11-02T16:12:18.960Z,91.58
2018-11-02T16:13:18.936Z,91.63
2018-11-02T16:14:18.996Z,91.48
2018-11-02T16:15:18.921Z,91.73
2018-11-02T16:16:18.912Z,91.69
2018-11-02T16:17:18.898Z,91.94
2018-11-02T16:18:18.891Z,92.00
2018-11-02T16:19:20.878Z,92.25
2018-11-02T16:20:18.927Z,92.25
2018-11-02T16:21:18.880Z,92.21
2018-11-02T16:22:20.330Z,92.00
2018-11-02T16:23:18.868Z,92.00
2018-11-02T16:24:18.834Z,92.14
2018-11-02T16:25:18.808Z,92.14
2018-11-02T16:26:18.808Z,92.04
2018-11-02T16:27:18.785Z,92.25
2018-11-02T16:28:18.819Z,92.35
2018-11-02T16:29:18.781Z,92.25
2018-11-02T16:30:18.755Z,92.55
2018-11-02T16:31:18.748Z,92.35
2018-11-02T16:32:18.733Z,91.94
2018-11-02T16:33:18.718Z,92.04
2018-11-02T16:34:18.783Z,91.94
2018-11-02T16:35:18.699Z,91.73
2018-11-02T16:36:18.697Z,91.73
2018-11-02T16:37:18.671Z,91.63
2018-11-02T16:38:18.661Z,91.83
2018-11-02T16:39:18.732Z,93.28
2018-11-02T16:40:18.640Z,92.86
2018-11-02T16:41:18.630Z,93.28
2018-11-02T16:42:18.619Z,92.97
2018-11-02T16:43:18.638Z,93.18
2018-11-02T16:44:18.784Z,93.18
2018-11-02T16:45:18.580Z,92.97
2018-11-02T16:46:18.589Z,93.18
2018-11-02T16:47:18.557Z,92.97
2018-11-02T16:48:18.547Z,92.76
2018-11-02T16:49:18.543Z,93.59
2018-11-02T16:50:18.564Z,93.28
2018-11-02T16:51:18.520Z,93.28
2018-11-02T16:52:18.510Z,93.38
2018-11-02T16:53:18.490Z,92.55
2018-11-02T16:54:18.503Z,92.86
2018-11-02T16:55:18.520Z,92.86
2018-11-02T16:56:18.468Z,92.76
2018-11-02T16:57:18.470Z,92.25
2018-11-02T16:58:18.452Z,92.35
2018-11-02T16:59:18.426Z,92.80
2018-11-02T17:00:18.412Z,92.46
2018-11-02T17:01:18.418Z,92.35
2018-11-02T17:02:18.393Z,92.14
2018-11-02T17:03:18.381Z,92.19
2018-11-02T17:04:18.385Z,92.35
2018-11-02T17:05:18.359Z,93.18
2018-11-02T17:06:18.359Z,93.18
2018-11-02T17:07:18.332Z,92.86
2018-11-02T17:08:18.325Z,92.80
2018-11-02T17:09:18.308Z,92.76
2018-11-02T17:10:18.306Z,92.86
2018-11-02T17:11:18.320Z,93.38
2018-11-02T17:12:18.278Z,92.66
2018-11-02T17:13:18.264Z,93.38
2018-11-02T17:14:18.261Z,93.07
2018-11-02T17:15:18.245Z,93.49
2018-11-02T17:16:18.248Z,93.07
2018-11-02T17:17:18.223Z,92.86
2018-11-02T17:18:18.308Z,93.38
2018-11-02T17:19:18.199Z,93.07
2018-11-02T17:20:18.188Z,92.86
2018-11-02T17:21:18.192Z,92.31
2018-11-02T17:22:18.165Z,92.72
2018-11-02T17:23:18.150Z,92.93
2018-11-02T17:24:18.148Z,92.51
2018-11-02T17:25:18.132Z,92.76
2018-11-02T17:26:18.132Z,92.97
2018-11-02T17:27:18.111Z,92.82
2018-11-02T17:28:18.089Z,92.86
2018-11-02T17:29:18.084Z,92.61
2018-11-02T17:30:18.071Z,92.76
2018-11-02T17:31:18.071Z,92.66
2018-11-02T17:32:18.052Z,92.86
2018-11-02T17:33:18.043Z,93.07
2018-11-02T17:34:18.025Z,93.07
2018-11-02T17:35:18.018Z,92.97
2018-11-02T17:36:18.021Z,92.82
2018-11-02T17:37:17.992Z,92.97
2018-11-02T17:38:17.981Z,93.03
2018-11-02T17:39:17.972Z,93.03
2018-11-02T17:40:17.953Z,92.93
2018-11-02T17:41:17.979Z,93.24
2018-11-02T17:42:17.926Z,93.34
2018-11-02T17:43:17.918Z,92.51
2018-11-02T17:44:17.912Z,92.41
2018-11-02T17:45:17.895Z,92.51
2018-11-02T17:46:17.912Z,92.97
2018-11-02T17:47:17.877Z,93.13
2018-11-02T17:48:17.866Z,92.72
2018-11-02T17:49:17.853Z,92.72
2018-11-02T17:50:17.848Z,92.86
2018-11-02T17:51:17.832Z,92.76
2018-11-02T17:52:17.837Z,92.93
2018-11-02T17:53:17.821Z,92.82